sensor_id;sensor_type;location;lat;lon;timestamp;P1;durP1;ratioP1;P2;durP2;ratioP2
27275;SDS011;14772;47.398;8.080;2022-10-15T00:01:05;3.00;;;1.40;;
27275;SDS011;14772;47.398;8.080;2022-10-15T00:06:05;3.77;;;1.47;;
27275;SDS011;14772;47.398;8.080;2022-10-15T00:11:06;2.03;;;1.30;;
27275;SDS011;14772;47.398;8.080;2022-10-15T00:16:06;3.70;;;1.37;;
27275;SDS011;14772;47.398;8.080;2022-10-15T00:21:06;3.43;;;1.40;;
27275;SDS011;14772;47.398;8.080;2022-10-15T00:26:05;2.23;;;1.30;;
27275;SDS011;14772;47.398;8.080;2022-10-15T00:31:04;2.60;;;1.30;;
27275;SDS011;14772;47.398;8.080;2022-10-15T00:36:04;8.17;;;1.70;;
27275;SDS011;14772;47.398;8.080;2022-10-15T00:41:04;1.67;;;1.30;;
27275;SDS011;14772;47.398;8.080;2022-10-15T00:46:03;2.87;;;1.40;;
27275;SDS011;14772;47.398;8.080;2022-10-15T00:51:01;2.93;;;1.40;;
27275;SDS011;14772;47.398;8.080;2022-10-15T00:56:00;3.57;;;1.50;;
27275;SDS011;14772;47.398;8.080;2022-10-15T01:00:58;2.27;;;1.30;;
27275;SDS011;14772;47.398;8.080;2022-10-15T01:05:55;3.97;;;1.47;;
27275;SDS011;14772;47.398;8.080;2022-10-15T01:10:54;4.40;;;1.50;;
27275;SDS011;14772;47.398;8.080;2022-10-15T01:15:56;7.20;;;1.60;;
27275;SDS011;14772;47.398;8.080;2022-10-15T01:20:58;3.83;;;1.47;;
27275;SDS011;14772;47.398;8.080;2022-10-15T01:26:03;4.00;;;1.40;;
27275;SDS011;14772;47.398;8.080;2022-10-15T01:31:05;3.77;;;1.50;;
27275;SDS011;14772;47.398;8.080;2022-10-15T01:36:08;2.67;;;1.40;;
27275;SDS011;14772;47.398;8.080;2022-10-15T01:41:09;4.20;;;1.50;;
27275;SDS011;14772;47.398;8.080;2022-10-15T01:46:10;2.37;;;1.40;;
27275;SDS011;14772;47.398;8.080;2022-10-15T01:51:10;3.20;;;1.50;;
27275;SDS011;14772;47.398;8.080;2022-10-15T01:56:11;3.43;;;1.50;;
27275;SDS011;14772;47.398;8.080;2022-10-15T02:01:12;7.47;;;1.90;;
27275;SDS011;14772;47.398;8.080;2022-10-15T02:06:11;3.87;;;1.53;;
27275;SDS011;14772;47.398;8.080;2022-10-15T02:11:11;6.83;;;1.80;;
27275;SDS011;14772;47.398;8.080;2022-10-15T02:16:11;6.67;;;1.87;;
27275;SDS011;14772;47.398;8.080;2022-10-15T02:21:13;4.67;;;1.70;;
27275;SDS011;14772;47.398;8.080;2022-10-15T02:26:11;7.20;;;2.10;;
27275;SDS011;14772;47.398;8.080;2022-10-15T02:31:09;5.20;;;1.80;;
27275;SDS011;14772;47.398;8.080;2022-10-15T02:36:09;6.40;;;2.23;;
27275;SDS011;14772;47.398;8.080;2022-10-15T02:41:06;8.37;;;2.20;;
27275;SDS011;14772;47.398;8.080;2022-10-15T02:46:05;6.93;;;2.00;;
27275;SDS011;14772;47.398;8.080;2022-10-15T02:51:05;6.53;;;1.90;;
27275;SDS011;14772;47.398;8.080;2022-10-15T02:56:02;5.77;;;1.80;;
27275;SDS011;14772;47.398;8.080;2022-10-15T03:01:00;4.93;;;2.00;;
27275;SDS011;14772;47.398;8.080;2022-10-15T03:05:57;5.70;;;2.00;;
27275;SDS011;14772;47.398;8.080;2022-10-15T03:10:54;6.73;;;2.07;;
27275;SDS011;14772;47.398;8.080;2022-10-15T03:15:53;6.27;;;2.10;;
27275;SDS011;14772;47.398;8.080;2022-10-15T03:20:54;5.70;;;2.20;;
27275;SDS011;14772;47.398;8.080;2022-10-15T03:25:52;6.50;;;2.13;;
27275;SDS011;14772;47.398;8.080;2022-10-15T03:30:49;7.10;;;2.10;;
27275;SDS011;14772;47.398;8.080;2022-10-15T03:35:46;6.43;;;2.17;;
27275;SDS011;14772;47.398;8.080;2022-10-15T03:40:44;5.00;;;2.00;;
27275;SDS011;14772;47.398;8.080;2022-10-15T03:45:42;6.13;;;2.00;;
27275;SDS011;14772;47.398;8.080;2022-10-15T03:50:39;6.23;;;2.10;;
27275;SDS011;14772;47.398;8.080;2022-10-15T03:55:36;7.37;;;2.10;;
27275;SDS011;14772;47.398;8.080;2022-10-15T04:00:33;5.87;;;1.90;;
27275;SDS011;14772;47.398;8.080;2022-10-15T04:05:30;8.17;;;2.00;;
27275;SDS011;14772;47.398;8.080;2022-10-15T04:10:28;6.77;;;2.10;;
27275;SDS011;14772;47.398;8.080;2022-10-15T04:15:25;7.63;;;2.03;;
27275;SDS011;14772;47.398;8.080;2022-10-15T04:20:22;6.53;;;2.10;;
27275;SDS011;14772;47.398;8.080;2022-10-15T04:25:19;7.07;;;2.23;;
27275;SDS011;14772;47.398;8.080;2022-10-15T04:30:17;5.90;;;2.00;;
27275;SDS011;14772;47.398;8.080;2022-10-15T04:35:14;7.07;;;1.80;;
27275;SDS011;14772;47.398;8.080;2022-10-15T04:40:11;4.83;;;2.00;;
27275;SDS011;14772;47.398;8.080;2022-10-15T04:45:09;10.70;;;2.67;;
27275;SDS011;14772;47.398;8.080;2022-10-15T04:50:07;8.13;;;3.13;;
27275;SDS011;14772;47.398;8.080;2022-10-15T04:55:05;6.50;;;2.20;;
27275;SDS011;14772;47.398;8.080;2022-10-15T05:00:04;7.27;;;2.00;;
27275;SDS011;14772;47.398;8.080;2022-10-15T05:05:02;6.87;;;2.10;;
27275;SDS011;14772;47.398;8.080;2022-10-15T05:10:01;5.93;;;2.00;;
27275;SDS011;14772;47.398;8.080;2022-10-15T05:14:58;5.47;;;1.97;;
27275;SDS011;14772;47.398;8.080;2022-10-15T05:19:55;6.50;;;1.90;;
27275;SDS011;14772;47.398;8.080;2022-10-15T05:24:52;8.83;;;2.30;;
27275;SDS011;14772;47.398;8.080;2022-10-15T05:29:49;5.37;;;1.90;;
27275;SDS011;14772;47.398;8.080;2022-10-15T05:34:47;7.60;;;2.10;;
27275;SDS011;14772;47.398;8.080;2022-10-15T05:39:45;9.77;;;2.80;;
27275;SDS011;14772;47.398;8.080;2022-10-15T05:44:42;7.20;;;2.40;;
27275;SDS011;14772;47.398;8.080;2022-10-15T05:49:39;7.43;;;2.43;;
27275;SDS011;14772;47.398;8.080;2022-10-15T05:54:36;8.60;;;2.40;;
27275;SDS011;14772;47.398;8.080;2022-10-15T05:59:33;7.60;;;2.23;;
27275;SDS011;14772;47.398;8.080;2022-10-15T06:04:30;8.03;;;2.00;;
27275;SDS011;14772;47.398;8.080;2022-10-15T06:09:27;9.27;;;2.20;;
27275;SDS011;14772;47.398;8.080;2022-10-15T06:14:25;9.23;;;2.40;;
27275;SDS011;14772;47.398;8.080;2022-10-15T06:19:22;12.97;;;2.73;;
27275;SDS011;14772;47.398;8.080;2022-10-15T06:24:19;8.33;;;2.30;;
27275;SDS011;14772;47.398;8.080;2022-10-15T06:29:16;10.90;;;2.30;;
27275;SDS011;14772;47.398;8.080;2022-10-15T06:34:13;9.70;;;2.30;;
27275;SDS011;14772;47.398;8.080;2022-10-15T06:39:11;9.73;;;2.57;;
27275;SDS011;14772;47.398;8.080;2022-10-15T06:44:08;8.57;;;2.70;;
27275;SDS011;14772;47.398;8.080;2022-10-15T06:49:05;8.43;;;2.60;;
27275;SDS011;14772;47.398;8.080;2022-10-15T06:54:03;8.27;;;2.43;;
27275;SDS011;14772;47.398;8.080;2022-10-15T06:59:00;12.27;;;2.70;;
27275;SDS011;14772;47.398;8.080;2022-10-15T07:03:57;9.23;;;2.60;;
27275;SDS011;14772;47.398;8.080;2022-10-15T07:08:54;9.37;;;2.73;;
27275;SDS011;14772;47.398;8.080;2022-10-15T07:13:51;8.97;;;3.10;;
27275;SDS011;14772;47.398;8.080;2022-10-15T07:18:50;8.30;;;2.80;;
27275;SDS011;14772;47.398;8.080;2022-10-15T07:23:47;10.97;;;2.70;;
27275;SDS011;14772;47.398;8.080;2022-10-15T07:28:44;12.50;;;2.93;;
27275;SDS011;14772;47.398;8.080;2022-10-15T07:33:42;12.27;;;3.37;;
27275;SDS011;14772;47.398;8.080;2022-10-15T07:38:39;10.23;;;3.60;;
27275;SDS011;14772;47.398;8.080;2022-10-15T07:43:37;10.30;;;3.17;;
27275;SDS011;14772;47.398;8.080;2022-10-15T07:48:34;10.10;;;3.00;;
27275;SDS011;14772;47.398;8.080;2022-10-15T07:53:32;7.53;;;2.30;;
27275;SDS011;14772;47.398;8.080;2022-10-15T07:58:29;10.37;;;2.80;;
27275;SDS011;14772;47.398;8.080;2022-10-15T08:03:26;8.23;;;2.30;;
27275;SDS011;14772;47.398;8.080;2022-10-15T08:08:24;8.93;;;2.60;;
27275;SDS011;14772;47.398;8.080;2022-10-15T08:13:21;9.17;;;3.23;;
27275;SDS011;14772;47.398;8.080;2022-10-15T08:18:19;9.43;;;2.20;;
27275;SDS011;14772;47.398;8.080;2022-10-15T08:23:16;8.73;;;2.20;;
27275;SDS011;14772;47.398;8.080;2022-10-15T08:28:14;9.83;;;2.10;;
27275;SDS011;14772;47.398;8.080;2022-10-15T08:33:11;7.83;;;2.07;;
27275;SDS011;14772;47.398;8.080;2022-10-15T08:38:09;4.73;;;1.97;;
27275;SDS011;14772;47.398;8.080;2022-10-15T08:43:10;5.67;;;1.97;;
27275;SDS011;14772;47.398;8.080;2022-10-15T08:48:12;7.27;;;1.80;;
27275;SDS011;14772;47.398;8.080;2022-10-15T08:53:13;7.10;;;2.00;;
27275;SDS011;14772;47.398;8.080;2022-10-15T08:58:14;8.40;;;2.77;;
27275;SDS011;14772;47.398;8.080;2022-10-15T09:03:19;8.33;;;2.00;;
27275;SDS011;14772;47.398;8.080;2022-10-15T09:08:29;9.83;;;2.80;;
27275;SDS011;14772;47.398;8.080;2022-10-15T09:13:31;8.80;;;2.40;;
27275;SDS011;14772;47.398;8.080;2022-10-15T09:18:31;5.37;;;1.83;;
27275;SDS011;14772;47.398;8.080;2022-10-15T09:23:45;5.83;;;2.07;;
27275;SDS011;14772;47.398;8.080;2022-10-15T09:28:43;7.27;;;1.90;;
27275;SDS011;14772;47.398;8.080;2022-10-15T09:33:45;6.30;;;1.97;;
27275;SDS011;14772;47.398;8.080;2022-10-15T09:38:47;7.93;;;2.20;;
27275;SDS011;14772;47.398;8.080;2022-10-15T09:43:50;5.77;;;1.87;;
27275;SDS011;14772;47.398;8.080;2022-10-15T09:48:51;8.33;;;2.00;;
27275;SDS011;14772;47.398;8.080;2022-10-15T09:53:54;5.93;;;2.10;;
27275;SDS011;14772;47.398;8.080;2022-10-15T09:58:54;6.03;;;2.00;;
27275;SDS011;14772;47.398;8.080;2022-10-15T10:03:52;6.50;;;2.53;;
27275;SDS011;14772;47.398;8.080;2022-10-15T10:08:53;9.07;;;2.13;;
27275;SDS011;14772;47.398;8.080;2022-10-15T10:14:00;9.20;;;2.20;;
27275;SDS011;14772;47.398;8.080;2022-10-15T10:19:03;9.10;;;2.30;;
27275;SDS011;14772;47.398;8.080;2022-10-15T10:24:23;6.43;;;1.90;;
27275;SDS011;14772;47.398;8.080;2022-10-15T10:29:23;9.70;;;2.20;;
27275;SDS011;14772;47.398;8.080;2022-10-15T10:34:23;7.53;;;2.23;;
27275;SDS011;14772;47.398;8.080;2022-10-15T10:39:24;8.87;;;2.43;;
27275;SDS011;14772;47.398;8.080;2022-10-15T10:44:26;8.63;;;2.50;;
27275;SDS011;14772;47.398;8.080;2022-10-15T10:49:29;6.83;;;2.10;;
27275;SDS011;14772;47.398;8.080;2022-10-15T10:54:27;6.97;;;2.10;;
27275;SDS011;14772;47.398;8.080;2022-10-15T10:59:26;7.67;;;2.20;;
27275;SDS011;14772;47.398;8.080;2022-10-15T11:04:27;7.87;;;2.10;;
27275;SDS011;14772;47.398;8.080;2022-10-15T11:14:57;8.30;;;1.90;;
27275;SDS011;14772;47.398;8.080;2022-10-15T11:19:59;10.47;;;2.00;;
27275;SDS011;14772;47.398;8.080;2022-10-15T11:25:00;7.60;;;2.17;;
27275;SDS011;14772;47.398;8.080;2022-10-15T11:30:09;4.63;;;1.87;;
27275;SDS011;14772;47.398;8.080;2022-10-15T11:35:14;5.90;;;1.80;;
27275;SDS011;14772;47.398;8.080;2022-10-15T11:40:35;5.47;;;1.70;;
27275;SDS011;14772;47.398;8.080;2022-10-15T11:45:41;4.33;;;1.77;;
27275;SDS011;14772;47.398;8.080;2022-10-15T11:50:47;6.77;;;1.90;;
27275;SDS011;14772;47.398;8.080;2022-10-15T11:55:49;7.93;;;2.10;;
27275;SDS011;14772;47.398;8.080;2022-10-15T12:00:49;8.30;;;1.90;;
27275;SDS011;14772;47.398;8.080;2022-10-15T12:05:50;5.67;;;1.87;;
27275;SDS011;14772;47.398;8.080;2022-10-15T12:10:58;6.87;;;1.83;;
27275;SDS011;14772;47.398;8.080;2022-10-15T12:16:02;7.70;;;1.80;;
27275;SDS011;14772;47.398;8.080;2022-10-15T12:26:27;7.43;;;1.90;;
27275;SDS011;14772;47.398;8.080;2022-10-15T12:31:41;5.67;;;1.80;;
27275;SDS011;14772;47.398;8.080;2022-10-15T12:36:40;3.77;;;1.67;;
27275;SDS011;14772;47.398;8.080;2022-10-15T12:41:38;13.83;;;3.30;;
27275;SDS011;14772;47.398;8.080;2022-10-15T12:46:37;9.43;;;1.77;;
27275;SDS011;14772;47.398;8.080;2022-10-15T12:51:35;5.47;;;1.57;;
27275;SDS011;14772;47.398;8.080;2022-10-15T12:56:37;5.93;;;1.83;;
27275;SDS011;14772;47.398;8.080;2022-10-15T13:01:49;5.67;;;1.90;;
27275;SDS011;14772;47.398;8.080;2022-10-15T13:06:46;3.83;;;1.50;;
27275;SDS011;14772;47.398;8.080;2022-10-15T13:11:44;4.40;;;1.80;;
27275;SDS011;14772;47.398;8.080;2022-10-15T13:16:43;5.83;;;1.90;;
27275;SDS011;14772;47.398;8.080;2022-10-15T13:21:46;7.17;;;1.63;;
27275;SDS011;14772;47.398;8.080;2022-10-15T13:26:45;7.00;;;1.80;;
27275;SDS011;14772;47.398;8.080;2022-10-15T13:31:42;5.73;;;1.77;;
27275;SDS011;14772;47.398;8.080;2022-10-15T13:36:40;8.70;;;1.90;;
27275;SDS011;14772;47.398;8.080;2022-10-15T13:41:39;6.60;;;1.83;;
27275;SDS011;14772;47.398;8.080;2022-10-15T13:46:36;6.93;;;1.70;;
27275;SDS011;14772;47.398;8.080;2022-10-15T13:51:34;4.53;;;1.67;;
27275;SDS011;14772;47.398;8.080;2022-10-15T13:56:34;3.70;;;1.60;;
27275;SDS011;14772;47.398;8.080;2022-10-15T14:01:31;5.27;;;1.60;;
27275;SDS011;14772;47.398;8.080;2022-10-15T14:06:29;3.27;;;1.50;;
27275;SDS011;14772;47.398;8.080;2022-10-15T14:11:28;5.33;;;1.70;;
27275;SDS011;14772;47.398;8.080;2022-10-15T14:16:28;6.43;;;1.90;;
27275;SDS011;14772;47.398;8.080;2022-10-15T14:21:27;5.03;;;1.70;;
27275;SDS011;14772;47.398;8.080;2022-10-15T14:26:24;7.53;;;1.90;;
27275;SDS011;14772;47.398;8.080;2022-10-15T14:31:27;5.03;;;1.60;;
27275;SDS011;14772;47.398;8.080;2022-10-15T14:36:27;2.63;;;1.50;;
27275;SDS011;14772;47.398;8.080;2022-10-15T14:41:27;4.33;;;1.83;;
27275;SDS011;14772;47.398;8.080;2022-10-15T14:46:25;4.33;;;1.67;;
27275;SDS011;14772;47.398;8.080;2022-10-15T14:51:28;7.47;;;1.90;;
27275;SDS011;14772;47.398;8.080;2022-10-15T14:56:27;6.13;;;1.70;;
27275;SDS011;14772;47.398;8.080;2022-10-15T15:01:26;4.47;;;1.70;;
27275;SDS011;14772;47.398;8.080;2022-10-15T15:06:23;6.23;;;2.10;;
27275;SDS011;14772;47.398;8.080;2022-10-15T15:11:21;5.27;;;1.80;;
27275;SDS011;14772;47.398;8.080;2022-10-15T15:16:20;7.17;;;2.03;;
27275;SDS011;14772;47.398;8.080;2022-10-15T15:21:19;9.43;;;2.40;;
27275;SDS011;14772;47.398;8.080;2022-10-15T15:26:17;9.27;;;2.17;;
27275;SDS011;14772;47.398;8.080;2022-10-15T15:31:15;7.40;;;2.20;;
27275;SDS011;14772;47.398;8.080;2022-10-15T15:36:13;6.80;;;2.07;;
27275;SDS011;14772;47.398;8.080;2022-10-15T15:41:13;9.67;;;2.40;;
27275;SDS011;14772;47.398;8.080;2022-10-15T15:46:12;9.97;;;3.00;;
27275;SDS011;14772;47.398;8.080;2022-10-15T15:51:12;8.60;;;2.50;;
27275;SDS011;14772;47.398;8.080;2022-10-15T15:56:12;10.33;;;3.47;;
27275;SDS011;14772;47.398;8.080;2022-10-15T16:01:09;9.67;;;2.87;;
27275;SDS011;14772;47.398;8.080;2022-10-15T16:06:07;11.10;;;3.60;;
27275;SDS011;14772;47.398;8.080;2022-10-15T16:11:05;11.23;;;3.00;;
27275;SDS011;14772;47.398;8.080;2022-10-15T16:16:02;7.80;;;2.27;;
27275;SDS011;14772;47.398;8.080;2022-10-15T16:21:00;14.43;;;2.60;;
27275;SDS011;14772;47.398;8.080;2022-10-15T16:25:57;11.37;;;3.07;;
27275;SDS011;14772;47.398;8.080;2022-10-15T16:30:54;9.73;;;2.87;;
27275;SDS011;14772;47.398;8.080;2022-10-15T16:36:08;14.80;;;3.20;;
27275;SDS011;14772;47.398;8.080;2022-10-15T16:41:06;11.20;;;2.57;;
27275;SDS011;14772;47.398;8.080;2022-10-15T16:46:04;15.33;;;3.10;;
27275;SDS011;14772;47.398;8.080;2022-10-15T16:51:02;13.57;;;2.90;;
27275;SDS011;14772;47.398;8.080;2022-10-15T16:56:02;13.97;;;2.57;;
27275;SDS011;14772;47.398;8.080;2022-10-15T17:01:02;14.90;;;3.30;;
27275;SDS011;14772;47.398;8.080;2022-10-15T17:06:01;15.87;;;4.37;;
27275;SDS011;14772;47.398;8.080;2022-10-15T17:11:00;11.70;;;3.50;;
27275;SDS011;14772;47.398;8.080;2022-10-15T17:16:06;16.20;;;3.27;;
27275;SDS011;14772;47.398;8.080;2022-10-15T17:21:06;15.80;;;3.90;;
27275;SDS011;14772;47.398;8.080;2022-10-15T17:26:05;13.90;;;3.97;;
27275;SDS011;14772;47.398;8.080;2022-10-15T17:31:04;13.07;;;4.13;;
27275;SDS011;14772;47.398;8.080;2022-10-15T17:36:04;16.80;;;4.90;;
27275;SDS011;14772;47.398;8.080;2022-10-15T17:41:05;18.13;;;4.27;;
27275;SDS011;14772;47.398;8.080;2022-10-15T17:46:04;13.83;;;3.70;;
27275;SDS011;14772;47.398;8.080;2022-10-15T17:51:03;15.83;;;3.50;;
27275;SDS011;14772;47.398;8.080;2022-10-15T17:56:08;15.13;;;3.33;;
27275;SDS011;14772;47.398;8.080;2022-10-15T18:01:10;12.73;;;2.80;;
27275;SDS011;14772;47.398;8.080;2022-10-15T18:06:08;12.80;;;3.17;;
27275;SDS011;14772;47.398;8.080;2022-10-15T18:11:07;16.23;;;3.50;;
27275;SDS011;14772;47.398;8.080;2022-10-15T18:16:05;15.40;;;3.53;;
27275;SDS011;14772;47.398;8.080;2022-10-15T18:21:06;13.77;;;3.53;;
27275;SDS011;14772;47.398;8.080;2022-10-15T18:26:04;18.17;;;4.37;;
27275;SDS011;14772;47.398;8.080;2022-10-15T18:31:03;24.93;;;5.93;;
27275;SDS011;14772;47.398;8.080;2022-10-15T18:36:04;16.20;;;4.20;;
27275;SDS011;14772;47.398;8.080;2022-10-15T18:41:05;15.73;;;4.17;;
27275;SDS011;14772;47.398;8.080;2022-10-15T18:46:07;18.73;;;4.20;;
27275;SDS011;14772;47.398;8.080;2022-10-15T18:51:05;19.97;;;4.80;;
27275;SDS011;14772;47.398;8.080;2022-10-15T18:56:04;16.63;;;5.07;;
27275;SDS011;14772;47.398;8.080;2022-10-15T19:01:08;18.80;;;6.00;;
27275;SDS011;14772;47.398;8.080;2022-10-15T19:17:37;25.03;;;6.37;;
27275;SDS011;14772;47.398;8.080;2022-10-15T19:23:09;20.60;;;5.40;;
27275;SDS011;14772;47.398;8.080;2022-10-15T19:28:15;16.40;;;6.10;;
27275;SDS011;14772;47.398;8.080;2022-10-15T19:33:13;25.17;;;7.27;;
27275;SDS011;14772;47.398;8.080;2022-10-15T19:38:11;17.83;;;6.40;;
27275;SDS011;14772;47.398;8.080;2022-10-15T19:59:40;16.20;;;6.23;;
27275;SDS011;14772;47.398;8.080;2022-10-15T21:07:38;14.53;;;4.57;;
27275;SDS011;14772;47.398;8.080;2022-10-15T21:12:37;14.70;;;5.10;;
27275;SDS011;14772;47.398;8.080;2022-10-15T21:17:38;16.57;;;4.80;;
27275;SDS011;14772;47.398;8.080;2022-10-15T21:22:36;18.00;;;4.80;;
27275;SDS011;14772;47.398;8.080;2022-10-15T21:27:34;17.07;;;5.07;;
27275;SDS011;14772;47.398;8.080;2022-10-15T21:32:37;15.83;;;4.23;;
27275;SDS011;14772;47.398;8.080;2022-10-15T21:37:37;15.83;;;4.80;;
27275;SDS011;14772;47.398;8.080;2022-10-15T21:42:38;19.10;;;5.23;;
27275;SDS011;14772;47.398;8.080;2022-10-15T21:48:00;18.43;;;5.03;;
27275;SDS011;14772;47.398;8.080;2022-10-15T21:53:03;16.40;;;4.70;;
27275;SDS011;14772;47.398;8.080;2022-10-15T21:58:05;12.30;;;4.70;;
27275;SDS011;14772;47.398;8.080;2022-10-15T22:03:03;14.53;;;5.30;;
27275;SDS011;14772;47.398;8.080;2022-10-15T22:08:06;16.97;;;5.17;;
27275;SDS011;14772;47.398;8.080;2022-10-15T22:13:04;17.13;;;5.87;;
27275;SDS011;14772;47.398;8.080;2022-10-15T22:18:07;14.80;;;5.20;;
27275;SDS011;14772;47.398;8.080;2022-10-15T22:23:05;17.70;;;5.13;;
27275;SDS011;14772;47.398;8.080;2022-10-15T22:28:04;16.80;;;4.80;;
27275;SDS011;14772;47.398;8.080;2022-10-15T22:33:04;18.83;;;5.43;;
27275;SDS011;14772;47.398;8.080;2022-10-15T22:38:02;16.73;;;5.10;;
27275;SDS011;14772;47.398;8.080;2022-10-15T22:43:06;16.30;;;4.80;;
27275;SDS011;14772;47.398;8.080;2022-10-15T22:48:08;17.03;;;4.87;;
27275;SDS011;14772;47.398;8.080;2022-10-15T22:53:42;18.10;;;5.27;;
27275;SDS011;14772;47.398;8.080;2022-10-15T23:10:13;16.47;;;5.30;;
27275;SDS011;14772;47.398;8.080;2022-10-15T23:15:19;17.70;;;5.67;;
27275;SDS011;14772;47.398;8.080;2022-10-15T23:20:19;17.33;;;4.70;;
27275;SDS011;14772;47.398;8.080;2022-10-15T23:25:24;19.27;;;4.73;;
27275;SDS011;14772;47.398;8.080;2022-10-15T23:30:36;19.70;;;4.93;;
27275;SDS011;14772;47.398;8.080;2022-10-15T23:35:36;14.93;;;4.90;;
27275;SDS011;14772;47.398;8.080;2022-10-15T23:51:18;17.17;;;5.00;;
27275;SDS011;14772;47.398;8.080;2022-10-15T23:56:18;22.10;;;5.33;;
